sensor_id;sensor_type;location;lat;lon;timestamp;P1;durP1;ratioP1;P2;durP2;ratioP2
72087;SDS011;59961;50.232;8.616;2022-10-30T00:00:43;14.23;;;5.60;;
72087;SDS011;59961;50.232;8.616;2022-10-30T00:03:09;15.68;;;5.20;;
72087;SDS011;59961;50.232;8.616;2022-10-30T00:05:34;12.95;;;5.78;;
72087;SDS011;59961;50.232;8.616;2022-10-30T00:07:59;13.43;;;6.45;;
72087;SDS011;59961;50.232;8.616;2022-10-30T00:10:25;10.77;;;5.07;;
72087;SDS011;59961;50.232;8.616;2022-10-30T00:12:50;14.10;;;4.80;;
72087;SDS011;59961;50.232;8.616;2022-10-30T00:15:15;13.17;;;5.10;;
72087;SDS011;59961;50.232;8.616;2022-10-30T00:17:40;10.17;;;4.90;;
72087;SDS011;59961;50.232;8.616;2022-10-30T00:20:06;10.37;;;5.17;;
72087;SDS011;59961;50.232;8.616;2022-10-30T00:22:31;13.37;;;4.63;;
72087;SDS011;59961;50.232;8.616;2022-10-30T00:24:56;15.27;;;5.63;;
72087;SDS011;59961;50.232;8.616;2022-10-30T00:27:21;12.87;;;5.10;;
72087;SDS011;59961;50.232;8.616;2022-10-30T00:29:47;13.43;;;5.97;;
72087;SDS011;59961;50.232;8.616;2022-10-30T00:32:12;12.77;;;5.47;;
72087;SDS011;59961;50.232;8.616;2022-10-30T00:34:37;12.60;;;5.53;;
72087;SDS011;59961;50.232;8.616;2022-10-30T00:37:02;13.13;;;5.70;;
72087;SDS011;59961;50.232;8.616;2022-10-30T00:39:27;12.68;;;4.90;;
72087;SDS011;59961;50.232;8.616;2022-10-30T00:41:52;13.37;;;5.40;;
72087;SDS011;59961;50.232;8.616;2022-10-30T00:47:03;14.40;;;5.43;;
72087;SDS011;59961;50.232;8.616;2022-10-30T00:49:30;18.40;;;6.30;;
72087;SDS011;59961;50.232;8.616;2022-10-30T00:51:57;10.93;;;5.50;;
72087;SDS011;59961;50.232;8.616;2022-10-30T00:54:23;11.13;;;5.33;;
72087;SDS011;59961;50.232;8.616;2022-10-30T00:56:48;14.03;;;5.77;;
72087;SDS011;59961;50.232;8.616;2022-10-30T00:59:15;15.23;;;5.70;;
72087;SDS011;59961;50.232;8.616;2022-10-30T01:01:41;16.88;;;5.70;;
72087;SDS011;59961;50.232;8.616;2022-10-30T01:04:06;11.90;;;5.00;;
72087;SDS011;59961;50.232;8.616;2022-10-30T01:06:32;15.17;;;5.40;;
72087;SDS011;59961;50.232;8.616;2022-10-30T01:08:59;12.35;;;4.82;;
72087;SDS011;59961;50.232;8.616;2022-10-30T01:11:25;14.40;;;5.80;;
72087;SDS011;59961;50.232;8.616;2022-10-30T01:13:50;13.37;;;5.67;;
72087;SDS011;59961;50.232;8.616;2022-10-30T01:19:02;15.67;;;6.50;;
72087;SDS011;59961;50.232;8.616;2022-10-30T01:21:41;16.77;;;5.90;;
72087;SDS011;59961;50.232;8.616;2022-10-30T01:24:12;12.13;;;6.05;;
72087;SDS011;59961;50.232;8.616;2022-10-30T01:26:47;14.30;;;5.95;;
72087;SDS011;59961;50.232;8.616;2022-10-30T01:34:19;14.85;;;5.88;;
72087;SDS011;59961;50.232;8.616;2022-10-30T01:36:48;12.50;;;5.63;;
72087;SDS011;59961;50.232;8.616;2022-10-30T01:39:15;15.55;;;6.13;;
72087;SDS011;59961;50.232;8.616;2022-10-30T01:41:41;16.67;;;5.10;;
72087;SDS011;59961;50.232;8.616;2022-10-30T01:44:08;17.47;;;5.30;;
72087;SDS011;59961;50.232;8.616;2022-10-30T01:57:11;16.35;;;6.22;;
72087;SDS011;59961;50.232;8.616;2022-10-30T01:59:40;12.00;;;5.45;;
72087;SDS011;59961;50.232;8.616;2022-10-30T02:02:06;13.03;;;6.37;;
72087;SDS011;59961;50.232;8.616;2022-10-30T02:04:31;11.10;;;5.47;;
72087;SDS011;59961;50.232;8.616;2022-10-30T02:06:57;13.43;;;5.27;;
72087;SDS011;59961;50.232;8.616;2022-10-30T02:09:22;16.63;;;6.47;;
72087;SDS011;59961;50.232;8.616;2022-10-30T02:11:47;16.40;;;6.20;;
72087;SDS011;59961;50.232;8.616;2022-10-30T02:14:14;14.98;;;5.60;;
72087;SDS011;59961;50.232;8.616;2022-10-30T02:16:44;13.07;;;6.47;;
72087;SDS011;59961;50.232;8.616;2022-10-30T02:19:10;15.73;;;6.25;;
72087;SDS011;59961;50.232;8.616;2022-10-30T02:21:35;13.10;;;6.80;;
72087;SDS011;59961;50.232;8.616;2022-10-30T02:24:00;14.07;;;6.70;;
72087;SDS011;59961;50.232;8.616;2022-10-30T02:26:25;16.37;;;6.50;;
72087;SDS011;59961;50.232;8.616;2022-10-30T02:28:50;14.97;;;6.80;;
72087;SDS011;59961;50.232;8.616;2022-10-30T02:31:15;14.30;;;6.10;;
72087;SDS011;59961;50.232;8.616;2022-10-30T02:33:45;11.02;;;6.13;;
72087;SDS011;59961;50.232;8.616;2022-10-30T02:36:10;11.27;;;5.72;;
72087;SDS011;59961;50.232;8.616;2022-10-30T02:38:35;13.47;;;6.33;;
72087;SDS011;59961;50.232;8.616;2022-10-30T02:41:00;14.90;;;5.82;;
72087;SDS011;59961;50.232;8.616;2022-10-30T02:43:25;14.15;;;6.07;;
72087;SDS011;59961;50.232;8.616;2022-10-30T02:45:51;17.63;;;5.78;;
72087;SDS011;59961;50.232;8.616;2022-10-30T02:48:16;14.30;;;5.30;;
72087;SDS011;59961;50.232;8.616;2022-10-30T02:50:41;12.20;;;5.50;;
72087;SDS011;59961;50.232;8.616;2022-10-30T02:53:06;8.90;;;4.60;;
72087;SDS011;59961;50.232;8.616;2022-10-30T02:55:31;15.30;;;6.35;;
72087;SDS011;59961;50.232;8.616;2022-10-30T02:57:56;15.40;;;6.20;;
72087;SDS011;59961;50.232;8.616;2022-10-30T03:00:22;14.67;;;6.27;;
72087;SDS011;59961;50.232;8.616;2022-10-30T03:02:47;11.47;;;5.43;;
72087;SDS011;59961;50.232;8.616;2022-10-30T03:05:12;17.50;;;8.03;;
72087;SDS011;59961;50.232;8.616;2022-10-30T03:07:38;13.27;;;6.28;;
72087;SDS011;59961;50.232;8.616;2022-10-30T03:10:03;14.57;;;6.20;;
72087;SDS011;59961;50.232;8.616;2022-10-30T03:12:29;14.90;;;7.00;;
72087;SDS011;59961;50.232;8.616;2022-10-30T03:14:54;13.50;;;6.10;;
72087;SDS011;59961;50.232;8.616;2022-10-30T03:17:19;19.20;;;6.37;;
72087;SDS011;59961;50.232;8.616;2022-10-30T03:19:44;16.48;;;6.78;;
72087;SDS011;59961;50.232;8.616;2022-10-30T03:22:09;16.10;;;7.00;;
72087;SDS011;59961;50.232;8.616;2022-10-30T03:24:35;15.27;;;6.07;;
72087;SDS011;59961;50.232;8.616;2022-10-30T03:27:00;14.53;;;6.73;;
72087;SDS011;59961;50.232;8.616;2022-10-30T03:29:25;18.17;;;6.57;;
72087;SDS011;59961;50.232;8.616;2022-10-30T03:31:50;12.70;;;6.45;;
72087;SDS011;59961;50.232;8.616;2022-10-30T03:34:15;13.02;;;6.72;;
72087;SDS011;59961;50.232;8.616;2022-10-30T03:36:40;13.97;;;6.13;;
72087;SDS011;59961;50.232;8.616;2022-10-30T03:39:06;13.73;;;5.53;;
72087;SDS011;59961;50.232;8.616;2022-10-30T03:41:31;13.37;;;5.77;;
72087;SDS011;59961;50.232;8.616;2022-10-30T03:43:56;15.33;;;6.10;;
72087;SDS011;59961;50.232;8.616;2022-10-30T03:46:21;14.15;;;6.32;;
72087;SDS011;59961;50.232;8.616;2022-10-30T03:48:49;14.80;;;6.20;;
72087;SDS011;59961;50.232;8.616;2022-10-30T03:51:15;12.65;;;5.72;;
72087;SDS011;59961;50.232;8.616;2022-10-30T03:53:40;13.90;;;6.03;;
72087;SDS011;59961;50.232;8.616;2022-10-30T03:56:05;13.03;;;6.77;;
72087;SDS011;59961;50.232;8.616;2022-10-30T03:58:31;11.97;;;5.83;;
72087;SDS011;59961;50.232;8.616;2022-10-30T04:01:00;11.77;;;6.13;;
72087;SDS011;59961;50.232;8.616;2022-10-30T04:03:25;17.85;;;6.97;;
72087;SDS011;59961;50.232;8.616;2022-10-30T04:05:51;16.20;;;6.50;;
72087;SDS011;59961;50.232;8.616;2022-10-30T04:08:16;13.65;;;6.25;;
72087;SDS011;59961;50.232;8.616;2022-10-30T04:10:42;17.00;;;6.33;;
72087;SDS011;59961;50.232;8.616;2022-10-30T04:13:08;16.95;;;6.78;;
72087;SDS011;59961;50.232;8.616;2022-10-30T04:15:34;18.00;;;6.40;;
72087;SDS011;59961;50.232;8.616;2022-10-30T04:18:00;12.98;;;6.50;;
72087;SDS011;59961;50.232;8.616;2022-10-30T04:20:26;15.10;;;7.17;;
72087;SDS011;59961;50.232;8.616;2022-10-30T04:22:55;15.90;;;6.97;;
72087;SDS011;59961;50.232;8.616;2022-10-30T04:25:20;13.95;;;6.63;;
72087;SDS011;59961;50.232;8.616;2022-10-30T04:27:45;15.10;;;6.60;;
72087;SDS011;59961;50.232;8.616;2022-10-30T04:30:11;18.67;;;6.50;;
72087;SDS011;59961;50.232;8.616;2022-10-30T04:32:44;15.80;;;6.53;;
72087;SDS011;59961;50.232;8.616;2022-10-30T04:35:09;14.18;;;6.90;;
72087;SDS011;59961;50.232;8.616;2022-10-30T04:37:35;16.87;;;6.10;;
72087;SDS011;59961;50.232;8.616;2022-10-30T04:40:00;20.37;;;6.77;;
72087;SDS011;59961;50.232;8.616;2022-10-30T04:42:25;12.27;;;6.60;;
72087;SDS011;59961;50.232;8.616;2022-10-30T04:44:50;11.90;;;6.17;;
72087;SDS011;59961;50.232;8.616;2022-10-30T04:47:15;15.10;;;6.43;;
72087;SDS011;59961;50.232;8.616;2022-10-30T04:49:41;15.83;;;6.30;;
72087;SDS011;59961;50.232;8.616;2022-10-30T04:52:06;13.00;;;6.10;;
72087;SDS011;59961;50.232;8.616;2022-10-30T04:54:32;11.27;;;5.63;;
72087;SDS011;59961;50.232;8.616;2022-10-30T04:56:57;13.00;;;5.87;;
72087;SDS011;59961;50.232;8.616;2022-10-30T04:59:22;13.07;;;6.30;;
72087;SDS011;59961;50.232;8.616;2022-10-30T05:01:47;16.00;;;5.90;;
72087;SDS011;59961;50.232;8.616;2022-10-30T05:04:12;11.63;;;5.97;;
72087;SDS011;59961;50.232;8.616;2022-10-30T05:06:37;12.85;;;5.97;;
72087;SDS011;59961;50.232;8.616;2022-10-30T05:09:02;15.70;;;6.13;;
72087;SDS011;59961;50.232;8.616;2022-10-30T05:11:28;16.83;;;7.17;;
72087;SDS011;59961;50.232;8.616;2022-10-30T05:13:53;11.67;;;6.00;;
72087;SDS011;59961;50.232;8.616;2022-10-30T05:16:18;14.35;;;6.00;;
72087;SDS011;59961;50.232;8.616;2022-10-30T05:18:43;11.40;;;5.73;;
72087;SDS011;59961;50.232;8.616;2022-10-30T05:21:08;15.43;;;6.18;;
72087;SDS011;59961;50.232;8.616;2022-10-30T05:23:33;15.20;;;6.10;;
72087;SDS011;59961;50.232;8.616;2022-10-30T05:25:59;11.40;;;5.30;;
72087;SDS011;59961;50.232;8.616;2022-10-30T05:28:24;17.33;;;6.57;;
72087;SDS011;59961;50.232;8.616;2022-10-30T05:30:51;14.10;;;5.65;;
72087;SDS011;59961;50.232;8.616;2022-10-30T05:33:16;13.60;;;5.50;;
72087;SDS011;59961;50.232;8.616;2022-10-30T05:35:42;15.93;;;6.40;;
72087;SDS011;59961;50.232;8.616;2022-10-30T05:38:07;13.73;;;5.33;;
72087;SDS011;59961;50.232;8.616;2022-10-30T05:40:32;12.40;;;5.43;;
72087;SDS011;59961;50.232;8.616;2022-10-30T05:42:58;11.53;;;5.53;;
72087;SDS011;59961;50.232;8.616;2022-10-30T05:45:23;13.70;;;5.63;;
72087;SDS011;59961;50.232;8.616;2022-10-30T05:50:19;13.77;;;5.67;;
72087;SDS011;59961;50.232;8.616;2022-10-30T05:52:44;11.13;;;5.57;;
72087;SDS011;59961;50.232;8.616;2022-10-30T05:55:10;11.50;;;5.45;;
72087;SDS011;59961;50.232;8.616;2022-10-30T05:57:35;12.00;;;5.50;;
72087;SDS011;59961;50.232;8.616;2022-10-30T06:00:00;10.50;;;5.72;;
72087;SDS011;59961;50.232;8.616;2022-10-30T06:02:25;14.73;;;5.30;;
72087;SDS011;59961;50.232;8.616;2022-10-30T06:04:50;12.10;;;5.30;;
72087;SDS011;59961;50.232;8.616;2022-10-30T06:07:16;12.77;;;5.93;;
72087;SDS011;59961;50.232;8.616;2022-10-30T06:09:41;14.10;;;6.00;;
72087;SDS011;59961;50.232;8.616;2022-10-30T06:12:06;10.38;;;5.00;;
72087;SDS011;59961;50.232;8.616;2022-10-30T06:14:31;15.60;;;6.47;;
72087;SDS011;59961;50.232;8.616;2022-10-30T06:16:56;13.32;;;6.03;;
72087;SDS011;59961;50.232;8.616;2022-10-30T06:19:21;13.48;;;5.82;;
72087;SDS011;59961;50.232;8.616;2022-10-30T06:21:47;16.17;;;5.82;;
72087;SDS011;59961;50.232;8.616;2022-10-30T06:24:12;13.67;;;5.93;;
72087;SDS011;59961;50.232;8.616;2022-10-30T06:26:38;12.52;;;5.75;;
72087;SDS011;59961;50.232;8.616;2022-10-30T06:29:03;13.27;;;6.20;;
72087;SDS011;59961;50.232;8.616;2022-10-30T06:31:28;13.50;;;6.73;;
72087;SDS011;59961;50.232;8.616;2022-10-30T06:33:53;14.17;;;6.20;;
72087;SDS011;59961;50.232;8.616;2022-10-30T06:36:18;12.53;;;6.40;;
72087;SDS011;59961;50.232;8.616;2022-10-30T06:38:43;11.87;;;5.53;;
72087;SDS011;59961;50.232;8.616;2022-10-30T06:41:09;12.83;;;5.80;;
72087;SDS011;59961;50.232;8.616;2022-10-30T06:43:34;14.17;;;5.90;;
72087;SDS011;59961;50.232;8.616;2022-10-30T06:45:59;12.30;;;6.07;;
72087;SDS011;59961;50.232;8.616;2022-10-30T06:48:25;12.50;;;5.73;;
72087;SDS011;59961;50.232;8.616;2022-10-30T06:50:54;17.45;;;6.30;;
72087;SDS011;59961;50.232;8.616;2022-10-30T06:53:21;14.85;;;5.40;;
72087;SDS011;59961;50.232;8.616;2022-10-30T06:56:20;10.55;;;5.28;;
72087;SDS011;59961;50.232;8.616;2022-10-30T06:58:38;13.45;;;4.68;;
72087;SDS011;59961;50.232;8.616;2022-10-30T07:01:03;9.53;;;4.10;;
72087;SDS011;59961;50.232;8.616;2022-10-30T07:03:29;8.80;;;5.13;;
72087;SDS011;59961;50.232;8.616;2022-10-30T07:05:54;12.90;;;4.47;;
72087;SDS011;59961;50.232;8.616;2022-10-30T07:08:20;11.83;;;5.40;;
72087;SDS011;59961;50.232;8.616;2022-10-30T07:10:45;15.73;;;5.23;;
72087;SDS011;59961;50.232;8.616;2022-10-30T07:13:10;18.05;;;6.88;;
72087;SDS011;59961;50.232;8.616;2022-10-30T07:15:35;12.00;;;5.53;;
72087;SDS011;59961;50.232;8.616;2022-10-30T07:18:03;12.87;;;5.70;;
72087;SDS011;59961;50.232;8.616;2022-10-30T07:20:29;11.80;;;5.60;;
72087;SDS011;59961;50.232;8.616;2022-10-30T07:22:54;12.98;;;6.03;;
72087;SDS011;59961;50.232;8.616;2022-10-30T07:25:19;11.93;;;5.47;;
72087;SDS011;59961;50.232;8.616;2022-10-30T07:27:49;12.30;;;5.17;;
72087;SDS011;59961;50.232;8.616;2022-10-30T07:30:15;16.02;;;6.53;;
72087;SDS011;59961;50.232;8.616;2022-10-30T07:32:41;11.35;;;5.38;;
72087;SDS011;59961;50.232;8.616;2022-10-30T07:35:06;11.47;;;5.77;;
72087;SDS011;59961;50.232;8.616;2022-10-30T07:37:32;13.73;;;6.35;;
72087;SDS011;59961;50.232;8.616;2022-10-30T07:39:57;10.50;;;5.77;;
72087;SDS011;59961;50.232;8.616;2022-10-30T07:42:22;11.10;;;5.80;;
72087;SDS011;59961;50.232;8.616;2022-10-30T07:44:47;12.87;;;5.80;;
72087;SDS011;59961;50.232;8.616;2022-10-30T07:47:13;12.30;;;5.63;;
72087;SDS011;59961;50.232;8.616;2022-10-30T07:49:38;11.43;;;6.00;;
72087;SDS011;59961;50.232;8.616;2022-10-30T07:52:03;12.80;;;6.87;;
72087;SDS011;59961;50.232;8.616;2022-10-30T07:54:28;10.60;;;5.90;;
72087;SDS011;59961;50.232;8.616;2022-10-30T07:56:53;14.30;;;6.70;;
72087;SDS011;59961;50.232;8.616;2022-10-30T07:59:18;14.13;;;5.80;;
72087;SDS011;59961;50.232;8.616;2022-10-30T08:01:44;12.67;;;6.00;;
72087;SDS011;59961;50.232;8.616;2022-10-30T08:04:09;13.77;;;6.63;;
72087;SDS011;59961;50.232;8.616;2022-10-30T08:06:35;14.73;;;6.22;;
72087;SDS011;59961;50.232;8.616;2022-10-30T08:09:00;12.40;;;6.37;;
72087;SDS011;59961;50.232;8.616;2022-10-30T08:11:25;11.50;;;6.38;;
72087;SDS011;59961;50.232;8.616;2022-10-30T08:13:50;14.37;;;6.80;;
72087;SDS011;59961;50.232;8.616;2022-10-30T08:16:16;13.33;;;7.50;;
72087;SDS011;59961;50.232;8.616;2022-10-30T08:18:42;15.23;;;7.00;;
72087;SDS011;59961;50.232;8.616;2022-10-30T08:21:07;12.47;;;7.47;;
72087;SDS011;59961;50.232;8.616;2022-10-30T08:23:32;20.20;;;8.00;;
72087;SDS011;59961;50.232;8.616;2022-10-30T08:25:57;15.83;;;7.50;;
72087;SDS011;59961;50.232;8.616;2022-10-30T08:28:24;18.38;;;8.68;;
72087;SDS011;59961;50.232;8.616;2022-10-30T08:30:49;19.53;;;9.40;;
72087;SDS011;59961;50.232;8.616;2022-10-30T08:33:14;14.75;;;8.55;;
72087;SDS011;59961;50.232;8.616;2022-10-30T08:35:49;21.87;;;9.63;;
72087;SDS011;59961;50.232;8.616;2022-10-30T08:38:15;18.97;;;8.70;;
72087;SDS011;59961;50.232;8.616;2022-10-30T08:40:40;18.13;;;9.27;;
72087;SDS011;59961;50.232;8.616;2022-10-30T08:43:06;19.92;;;9.38;;
72087;SDS011;59961;50.232;8.616;2022-10-30T08:45:31;18.30;;;9.18;;
72087;SDS011;59961;50.232;8.616;2022-10-30T08:47:57;20.53;;;10.30;;
72087;SDS011;59961;50.232;8.616;2022-10-30T08:50:23;17.15;;;10.05;;
72087;SDS011;59961;50.232;8.616;2022-10-30T08:52:48;21.90;;;10.10;;
72087;SDS011;59961;50.232;8.616;2022-10-30T08:55:13;20.23;;;10.45;;
72087;SDS011;59961;50.232;8.616;2022-10-30T08:57:38;18.30;;;10.27;;
72087;SDS011;59961;50.232;8.616;2022-10-30T09:00:04;18.30;;;9.85;;
72087;SDS011;59961;50.232;8.616;2022-10-30T09:02:29;20.10;;;10.93;;
72087;SDS011;59961;50.232;8.616;2022-10-30T09:04:54;19.25;;;10.32;;
72087;SDS011;59961;50.232;8.616;2022-10-30T09:07:19;21.88;;;10.18;;
72087;SDS011;59961;50.232;8.616;2022-10-30T09:09:45;21.13;;;11.03;;
72087;SDS011;59961;50.232;8.616;2022-10-30T09:12:10;21.87;;;9.97;;
72087;SDS011;59961;50.232;8.616;2022-10-30T09:14:35;17.63;;;9.33;;
72087;SDS011;59961;50.232;8.616;2022-10-30T09:17:00;20.88;;;10.43;;
72087;SDS011;59961;50.232;8.616;2022-10-30T09:19:25;18.33;;;9.90;;
72087;SDS011;59961;50.232;8.616;2022-10-30T09:21:52;24.48;;;10.90;;
72087;SDS011;59961;50.232;8.616;2022-10-30T09:24:17;22.93;;;10.83;;
72087;SDS011;59961;50.232;8.616;2022-10-30T09:26:43;20.17;;;10.27;;
72087;SDS011;59961;50.232;8.616;2022-10-30T09:29:08;18.02;;;10.63;;
72087;SDS011;59961;50.232;8.616;2022-10-30T09:31:33;21.57;;;10.20;;
72087;SDS011;59961;50.232;8.616;2022-10-30T09:33:58;19.67;;;10.55;;
72087;SDS011;59961;50.232;8.616;2022-10-30T09:36:23;23.90;;;10.43;;
72087;SDS011;59961;50.232;8.616;2022-10-30T09:38:48;19.67;;;10.65;;
72087;SDS011;59961;50.232;8.616;2022-10-30T09:41:19;18.92;;;10.77;;
72087;SDS011;59961;50.232;8.616;2022-10-30T09:48:41;19.50;;;10.57;;
72087;SDS011;59961;50.232;8.616;2022-10-30T09:51:14;19.15;;;10.27;;
72087;SDS011;59961;50.232;8.616;2022-10-30T10:01:13;19.38;;;9.68;;
72087;SDS011;59961;50.232;8.616;2022-10-30T10:03:48;19.52;;;9.20;;
72087;SDS011;59961;50.232;8.616;2022-10-30T10:06:16;27.13;;;9.35;;
72087;SDS011;59961;50.232;8.616;2022-10-30T10:08:46;20.00;;;8.20;;
72087;SDS011;59961;50.232;8.616;2022-10-30T10:11:15;18.02;;;8.63;;
72087;SDS011;59961;50.232;8.616;2022-10-30T10:16:40;16.98;;;8.40;;
72087;SDS011;59961;50.232;8.616;2022-10-30T10:19:19;20.73;;;9.85;;
72087;SDS011;59961;50.232;8.616;2022-10-30T10:21:46;21.20;;;9.00;;
72087;SDS011;59961;50.232;8.616;2022-10-30T10:24:15;19.85;;;8.88;;
72087;SDS011;59961;50.232;8.616;2022-10-30T10:26:48;26.83;;;9.93;;
72087;SDS011;59961;50.232;8.616;2022-10-30T10:29:20;22.33;;;9.30;;
72087;SDS011;59961;50.232;8.616;2022-10-30T10:44:30;20.60;;;11.00;;
72087;SDS011;59961;50.232;8.616;2022-10-30T10:47:01;23.00;;;10.77;;
72087;SDS011;59961;50.232;8.616;2022-10-30T10:52:01;17.30;;;8.63;;
72087;SDS011;59961;50.232;8.616;2022-10-30T10:54:32;17.63;;;8.70;;
72087;SDS011;59961;50.232;8.616;2022-10-30T10:56:59;19.90;;;9.02;;
72087;SDS011;59961;50.232;8.616;2022-10-30T10:59:26;16.40;;;8.80;;
72087;SDS011;59961;50.232;8.616;2022-10-30T11:01:57;18.60;;;8.95;;
72087;SDS011;59961;50.232;8.616;2022-10-30T11:06:58;15.47;;;8.93;;
72087;SDS011;59961;50.232;8.616;2022-10-30T11:09:26;17.70;;;7.97;;
72087;SDS011;59961;50.232;8.616;2022-10-30T11:11:53;21.60;;;8.23;;
72087;SDS011;59961;50.232;8.616;2022-10-30T11:14:23;16.98;;;8.50;;
72087;SDS011;59961;50.232;8.616;2022-10-30T11:19:13;17.67;;;8.13;;
72087;SDS011;59961;50.232;8.616;2022-10-30T11:21:41;23.27;;;13.63;;
72087;SDS011;59961;50.232;8.616;2022-10-30T11:24:24;19.75;;;8.77;;
72087;SDS011;59961;50.232;8.616;2022-10-30T11:26:49;15.13;;;8.68;;
72087;SDS011;59961;50.232;8.616;2022-10-30T11:29:17;18.40;;;7.57;;
72087;SDS011;59961;50.232;8.616;2022-10-30T11:31:44;16.25;;;7.75;;
72087;SDS011;59961;50.232;8.616;2022-10-30T11:36:41;14.75;;;7.50;;
72087;SDS011;59961;50.232;8.616;2022-10-30T11:39:10;16.07;;;7.30;;
72087;SDS011;59961;50.232;8.616;2022-10-30T11:41:36;16.25;;;6.95;;
72087;SDS011;59961;50.232;8.616;2022-10-30T11:44:02;18.07;;;7.40;;
72087;SDS011;59961;50.232;8.616;2022-10-30T11:46:28;15.63;;;7.60;;
72087;SDS011;59961;50.232;8.616;2022-10-30T11:48:53;13.10;;;6.47;;
72087;SDS011;59961;50.232;8.616;2022-10-30T11:51:28;12.43;;;6.10;;
72087;SDS011;59961;50.232;8.616;2022-10-30T11:53:55;14.40;;;6.05;;
72087;SDS011;59961;50.232;8.616;2022-10-30T11:56:22;17.67;;;6.60;;
72087;SDS011;59961;50.232;8.616;2022-10-30T11:58:48;12.18;;;6.15;;
72087;SDS011;59961;50.232;8.616;2022-10-30T12:01:31;16.42;;;6.63;;
72087;SDS011;59961;50.232;8.616;2022-10-30T12:04:15;11.93;;;5.93;;
72087;SDS011;59961;50.232;8.616;2022-10-30T12:06:40;13.93;;;6.33;;
72087;SDS011;59961;50.232;8.616;2022-10-30T12:09:13;15.83;;;8.60;;
72087;SDS011;59961;50.232;8.616;2022-10-30T12:11:43;20.13;;;8.80;;
72087;SDS011;59961;50.232;8.616;2022-10-30T12:16:43;16.08;;;8.23;;
72087;SDS011;59961;50.232;8.616;2022-10-30T12:19:10;16.23;;;8.57;;
72087;SDS011;59961;50.232;8.616;2022-10-30T12:21:40;15.55;;;6.97;;
72087;SDS011;59961;50.232;8.616;2022-10-30T12:24:11;10.05;;;4.35;;
72087;SDS011;59961;50.232;8.616;2022-10-30T12:26:38;11.47;;;4.73;;
72087;SDS011;59961;50.232;8.616;2022-10-30T12:29:04;11.17;;;5.13;;
72087;SDS011;59961;50.232;8.616;2022-10-30T12:31:47;12.20;;;4.40;;
72087;SDS011;59961;50.232;8.616;2022-10-30T12:34:38;11.63;;;5.57;;
72087;SDS011;59961;50.232;8.616;2022-10-30T12:39:41;11.52;;;4.30;;
72087;SDS011;59961;50.232;8.616;2022-10-30T12:42:10;10.73;;;4.57;;
72087;SDS011;59961;50.232;8.616;2022-10-30T12:44:42;12.27;;;4.40;;
72087;SDS011;59961;50.232;8.616;2022-10-30T12:47:26;10.38;;;4.25;;
72087;SDS011;59961;50.232;8.616;2022-10-30T12:49:55;9.00;;;4.38;;
72087;SDS011;59961;50.232;8.616;2022-10-30T12:55:01;16.07;;;4.37;;
72087;SDS011;59961;50.232;8.616;2022-10-30T12:57:27;10.77;;;4.18;;
72087;SDS011;59961;50.232;8.616;2022-10-30T13:05:12;12.70;;;4.93;;
72087;SDS011;59961;50.232;8.616;2022-10-30T13:07:43;10.50;;;4.47;;
72087;SDS011;59961;50.232;8.616;2022-10-30T13:12:41;10.68;;;4.22;;
72087;SDS011;59961;50.232;8.616;2022-10-30T13:15:12;10.95;;;4.22;;
72087;SDS011;59961;50.232;8.616;2022-10-30T13:17:39;9.93;;;4.40;;
72087;SDS011;59961;50.232;8.616;2022-10-30T13:20:10;16.10;;;4.18;;
72087;SDS011;59961;50.232;8.616;2022-10-30T13:22:38;11.23;;;3.95;;
72087;SDS011;59961;50.232;8.616;2022-10-30T13:25:12;13.10;;;4.00;;
72087;SDS011;59961;50.232;8.616;2022-10-30T13:30:22;9.55;;;4.10;;
72087;SDS011;59961;50.232;8.616;2022-10-30T13:35:25;13.20;;;4.75;;
72087;SDS011;59961;50.232;8.616;2022-10-30T13:38:04;11.17;;;3.70;;
72087;SDS011;59961;50.232;8.616;2022-10-30T13:41:21;12.30;;;4.13;;
72087;SDS011;59961;50.232;8.616;2022-10-30T13:48:45;11.50;;;4.18;;
72087;SDS011;59961;50.232;8.616;2022-10-30T13:51:33;9.40;;;3.80;;
72087;SDS011;59961;50.232;8.616;2022-10-30T13:54:12;10.80;;;3.55;;
72087;SDS011;59961;50.232;8.616;2022-10-30T13:56:40;6.38;;;3.58;;
72087;SDS011;59961;50.232;8.616;2022-10-30T14:04:34;11.53;;;3.60;;
72087;SDS011;59961;50.232;8.616;2022-10-30T14:07:15;8.70;;;3.67;;
72087;SDS011;59961;50.232;8.616;2022-10-30T14:09:47;7.60;;;3.95;;
72087;SDS011;59961;50.232;8.616;2022-10-30T14:14:58;8.68;;;3.58;;
72087;SDS011;59961;50.232;8.616;2022-10-30T14:17:27;10.30;;;4.50;;
72087;SDS011;59961;50.232;8.616;2022-10-30T14:22:30;10.68;;;4.32;;
72087;SDS011;59961;50.232;8.616;2022-10-30T14:24:55;10.27;;;4.33;;
72087;SDS011;59961;50.232;8.616;2022-10-30T14:27:25;13.23;;;4.90;;
72087;SDS011;59961;50.232;8.616;2022-10-30T14:29:51;11.67;;;4.93;;
72087;SDS011;59961;50.232;8.616;2022-10-30T14:34:43;11.73;;;4.38;;
72087;SDS011;59961;50.232;8.616;2022-10-30T14:37:08;8.18;;;4.30;;
72087;SDS011;59961;50.232;8.616;2022-10-30T14:39:40;8.90;;;4.33;;
72087;SDS011;59961;50.232;8.616;2022-10-30T14:44:43;10.60;;;4.63;;
72087;SDS011;59961;50.232;8.616;2022-10-30T14:50:01;11.95;;;4.82;;
72087;SDS011;59961;50.232;8.616;2022-10-30T14:52:33;10.07;;;5.20;;
72087;SDS011;59961;50.232;8.616;2022-10-30T14:57:44;13.43;;;5.07;;
72087;SDS011;59961;50.232;8.616;2022-10-30T15:00:54;13.33;;;5.10;;
72087;SDS011;59961;50.232;8.616;2022-10-30T15:03:08;11.85;;;5.10;;
72087;SDS011;59961;50.232;8.616;2022-10-30T15:11:08;11.02;;;4.80;;
72087;SDS011;59961;50.232;8.616;2022-10-30T15:13:35;13.43;;;5.50;;
72087;SDS011;59961;50.232;8.616;2022-10-30T15:16:02;11.97;;;5.30;;
72087;SDS011;59961;50.232;8.616;2022-10-30T15:18:29;11.23;;;5.53;;
72087;SDS011;59961;50.232;8.616;2022-10-30T15:20:54;10.68;;;5.40;;
72087;SDS011;59961;50.232;8.616;2022-10-30T15:23:26;12.43;;;5.67;;
72087;SDS011;59961;50.232;8.616;2022-10-30T15:25:52;11.60;;;5.88;;
72087;SDS011;59961;50.232;8.616;2022-10-30T15:28:18;10.85;;;5.93;;
72087;SDS011;59961;50.232;8.616;2022-10-30T15:30:57;12.32;;;5.35;;
72087;SDS011;59961;50.232;8.616;2022-10-30T15:33:23;10.20;;;5.17;;
72087;SDS011;59961;50.232;8.616;2022-10-30T15:35:48;10.87;;;4.70;;
72087;SDS011;59961;50.232;8.616;2022-10-30T15:38:13;12.07;;;4.57;;
72087;SDS011;59961;50.232;8.616;2022-10-30T15:40:38;12.55;;;4.85;;
72087;SDS011;59961;50.232;8.616;2022-10-30T15:43:04;10.40;;;4.70;;
72087;SDS011;59961;50.232;8.616;2022-10-30T15:45:35;10.10;;;4.90;;
72087;SDS011;59961;50.232;8.616;2022-10-30T15:50:51;10.75;;;5.88;;
72087;SDS011;59961;50.232;8.616;2022-10-30T15:53:17;14.45;;;5.22;;
72087;SDS011;59961;50.232;8.616;2022-10-30T15:55:43;11.80;;;4.33;;
72087;SDS011;59961;50.232;8.616;2022-10-30T15:58:10;12.30;;;4.77;;
72087;SDS011;59961;50.232;8.616;2022-10-30T16:00:38;14.00;;;5.73;;
72087;SDS011;59961;50.232;8.616;2022-10-30T16:03:04;11.50;;;5.50;;
72087;SDS011;59961;50.232;8.616;2022-10-30T16:05:30;12.33;;;6.23;;
72087;SDS011;59961;50.232;8.616;2022-10-30T16:07:56;17.95;;;6.75;;
72087;SDS011;59961;50.232;8.616;2022-10-30T16:10:22;17.73;;;5.97;;
72087;SDS011;59961;50.232;8.616;2022-10-30T16:12:48;19.15;;;6.40;;
72087;SDS011;59961;50.232;8.616;2022-10-30T16:15:16;13.07;;;6.37;;
72087;SDS011;59961;50.232;8.616;2022-10-30T16:17:44;13.50;;;6.00;;
72087;SDS011;59961;50.232;8.616;2022-10-30T16:20:09;15.47;;;6.07;;
72087;SDS011;59961;50.232;8.616;2022-10-30T16:22:36;13.98;;;5.35;;
72087;SDS011;59961;50.232;8.616;2022-10-30T16:25:06;11.27;;;5.68;;
72087;SDS011;59961;50.232;8.616;2022-10-30T16:27:31;13.38;;;5.82;;
72087;SDS011;59961;50.232;8.616;2022-10-30T16:29:57;16.50;;;5.70;;